createdAt,value
2022-11-15T00:02:05.844Z,101998.72
2022-11-15T00:05:26.917Z,101988.97
2022-11-15T00:08:47.680Z,101987.09
2022-11-15T00:12:08.869Z,101980.06
2022-11-15T00:15:29.563Z,101969.28
2022-11-15T00:18:55.146Z,101968.56
2022-11-15T00:22:15.770Z,101974.78
2022-11-15T00:25:37.275Z,101970.97
2022-11-15T00:28:58.524Z,101944.16
2022-11-15T00:32:19.695Z,101958.09
2022-11-15T00:35:41.994Z,101955.38
2022-11-15T00:39:06.833Z,101956.03
2022-11-15T00:42:28.946Z,101934.75
2022-11-15T00:45:50.774Z,101914.06
2022-11-15T00:49:11.394Z,101923.09
2022-11-15T00:52:32.533Z,101903.41
2022-11-15T00:55:53.718Z,101913.00
2022-11-15T00:59:16.595Z,101903.34
2022-11-15T01:02:37.534Z,101912.06
2022-11-15T01:06:01.331Z,101911.19
2022-11-15T01:09:23.090Z,101914.75
2022-11-15T01:12:43.743Z,101889.84
2022-11-15T01:16:13.853Z,101890.94
2022-11-15T01:19:34.517Z,101897.53
2022-11-15T01:22:55.654Z,101887.28
2022-11-15T01:26:17.208Z,101894.22
2022-11-15T01:29:37.645Z,101888.38
2022-11-15T01:32:58.930Z,101885.75
2022-11-15T01:36:23.276Z,101873.19
2022-11-15T01:39:43.739Z,101878.31
2022-11-15T01:43:31.483Z,101862.25
2022-11-15T01:46:52.814Z,101866.09
2022-11-15T01:50:22.163Z,101827.38
2022-11-15T01:53:47.462Z,101844.78
2022-11-15T01:57:11.805Z,101847.41
2022-11-15T02:00:33.107Z,101856.47
2022-11-15T02:04:07.050Z,101850.09
2022-11-15T02:07:27.895Z,101843.56
2022-11-15T02:10:48.342Z,101811.28
2022-11-15T02:14:11.449Z,101851.91
2022-11-15T02:17:50.886Z,101851.03
2022-11-15T02:21:30.965Z,101850.44
2022-11-15T02:25:33.690Z,101851.56
2022-11-15T02:29:11.927Z,101836.41
2022-11-15T02:32:33.473Z,101848.03
2022-11-15T02:36:01.201Z,101833.38
2022-11-15T02:39:46.211Z,101840.47
2022-11-15T02:43:30.442Z,101824.22
2022-11-15T02:47:13.843Z,101823.81
2022-11-15T02:50:35.507Z,101795.44
2022-11-15T02:53:56.339Z,101811.41
2022-11-15T02:57:20.064Z,101811.81
2022-11-15T03:00:55.423Z,101806.41
2022-11-15T03:04:45.175Z,101816.22
2022-11-15T03:08:44.106Z,101801.44
2022-11-15T03:12:22.628Z,101783.13
2022-11-15T03:15:56.407Z,101798.44
2022-11-15T03:19:37.547Z,101792.50
2022-11-15T03:23:12.175Z,101802.69
2022-11-15T03:26:34.828Z,101797.28
2022-11-15T03:30:03.474Z,101795.91
2022-11-15T03:33:24.836Z,101754.84
2022-11-15T03:36:47.029Z,101790.84
2022-11-15T03:40:09.720Z,101780.25
2022-11-15T03:43:58.186Z,101759.34
2022-11-15T03:47:27.946Z,101782.38
2022-11-15T03:50:49.633Z,101763.78
2022-11-15T03:54:10.570Z,101760.94
2022-11-15T03:57:31.409Z,101767.13
2022-11-15T04:00:53.479Z,101750.81
2022-11-15T04:04:14.313Z,101747.53
2022-11-15T04:07:34.768Z,101735.88
2022-11-15T04:10:55.994Z,101722.84
2022-11-15T04:14:16.958Z,101719.16
2022-11-15T04:17:50.898Z,101748.59
2022-11-15T04:21:30.295Z,101738.53
2022-11-15T04:24:50.673Z,101731.44
2022-11-15T04:28:12.603Z,101739.41
2022-11-15T04:31:33.679Z,101734.88
2022-11-15T04:34:54.195Z,101733.81
2022-11-15T04:38:14.605Z,101731.09
2022-11-15T04:41:35.384Z,101728.47
2022-11-15T04:44:57.029Z,101722.25
2022-11-15T04:48:17.957Z,101722.47
2022-11-15T04:51:38.730Z,101717.69
2022-11-15T04:55:03.588Z,101716.28
2022-11-15T04:58:31.415Z,101710.31
2022-11-15T05:01:51.970Z,101731.28
2022-11-15T05:05:12.671Z,101713.69
2022-11-15T05:08:33.880Z,101715.56
2022-11-15T05:11:55.042Z,101718.31
2022-11-15T05:15:15.969Z,101704.31
2022-11-15T05:18:36.974Z,101716.16
2022-11-15T05:21:58.836Z,101685.88
2022-11-15T05:25:19.760Z,101692.72
2022-11-15T05:28:40.460Z,101703.88
2022-11-15T05:32:01.143Z,101699.28
2022-11-15T05:35:32.650Z,101717.78
2022-11-15T05:38:54.486Z,101687.34
2022-11-15T05:42:19.161Z,101687.00
2022-11-15T05:45:39.965Z,101690.81
2022-11-15T05:49:01.342Z,101689.09
2022-11-15T05:52:27.039Z,101694.97
2022-11-15T05:55:48.436Z,101677.09
2022-11-15T05:59:13.374Z,101698.50
2022-11-15T06:02:35.308Z,101695.75
2022-11-15T06:05:57.301Z,101698.50
2022-11-15T06:09:18.791Z,101684.13
2022-11-15T06:12:40.544Z,101700.66
2022-11-15T06:16:02.659Z,101675.19
2022-11-15T06:19:23.159Z,101701.22
2022-11-15T06:22:44.746Z,101684.22
2022-11-15T06:26:05.446Z,101683.44
2022-11-15T06:29:26.984Z,101692.13
2022-11-15T06:32:48.914Z,101712.94
2022-11-15T06:36:17.418Z,101696.56
2022-11-15T06:39:39.873Z,101687.75
2022-11-15T06:43:00.854Z,101681.31
2022-11-15T06:46:21.656Z,101702.53
2022-11-15T06:49:42.260Z,101688.44
2022-11-15T06:53:04.669Z,101693.22
2022-11-15T06:56:26.251Z,101683.56
2022-11-15T06:59:47.879Z,101647.81
2022-11-15T07:03:09.340Z,101696.59
2022-11-15T07:06:30.299Z,101666.97
2022-11-15T07:09:51.895Z,101684.34
2022-11-15T07:13:12.865Z,101681.31
2022-11-15T07:16:33.485Z,101664.28
2022-11-15T07:19:54.477Z,101659.97
2022-11-15T07:23:15.195Z,101653.41
2022-11-15T07:26:37.329Z,101651.47
2022-11-15T07:29:59.486Z,101650.50
2022-11-15T07:33:21.385Z,101629.34
2022-11-15T07:36:43.095Z,101645.25
2022-11-15T07:40:04.179Z,101643.97
2022-11-15T07:43:24.869Z,101638.75
2022-11-15T07:46:45.176Z,101637.88
2022-11-15T07:50:09.474Z,101594.38
2022-11-15T07:53:30.424Z,101631.06
2022-11-15T07:56:52.518Z,101635.66
2022-11-15T08:00:14.155Z,101635.84
2022-11-15T08:03:35.448Z,101601.94
2022-11-15T08:06:56.542Z,101604.50
2022-11-15T08:10:20.184Z,101623.38
2022-11-15T08:13:40.868Z,101615.72
2022-11-15T08:17:01.511Z,101608.63
2022-11-15T08:20:21.998Z,101604.31
2022-11-15T08:23:42.585Z,101616.97
2022-11-15T08:27:02.964Z,101623.91
2022-11-15T08:30:24.456Z,101622.81
2022-11-15T08:33:46.226Z,101622.25
2022-11-15T08:37:07.442Z,101598.81
2022-11-15T08:40:28.189Z,101611.72
2022-11-15T08:43:52.387Z,101589.38
2022-11-15T08:47:14.757Z,101586.56
2022-11-15T08:50:35.848Z,101568.31
2022-11-15T08:53:57.054Z,101569.44
2022-11-15T08:57:17.812Z,101555.28
2022-11-15T09:00:38.322Z,101529.28
2022-11-15T09:03:59.672Z,101516.81
2022-11-15T09:07:20.504Z,101564.56
2022-11-15T09:10:41.396Z,101549.69
2022-11-15T09:14:02.206Z,101520.88
2022-11-15T09:17:24.977Z,101524.59
2022-11-15T09:20:45.980Z,101519.78
2022-11-15T09:24:07.071Z,101536.19
2022-11-15T09:27:31.115Z,101525.88
2022-11-15T09:30:51.563Z,101520.19
2022-11-15T09:34:13.090Z,101511.72
2022-11-15T09:37:34.024Z,101518.19
2022-11-15T09:41:14.757Z,101506.88
2022-11-15T09:44:55.578Z,101489.22
2022-11-15T09:48:50.002Z,101501.22
2022-11-15T09:52:09.907Z,101476.44
2022-11-15T09:55:15.762Z,101482.34
2022-11-15T09:58:35.285Z,101471.75
2022-11-15T10:02:13.604Z,101479.69
2022-11-15T10:05:20.596Z,101466.13
2022-11-15T10:08:36.098Z,101462.19
2022-11-15T10:11:39.812Z,101434.75
2022-11-15T10:14:43.708Z,101447.63
2022-11-15T10:18:04.852Z,101432.81
2022-11-15T10:21:38.940Z,101410.78
2022-11-15T10:24:44.669Z,101391.75
2022-11-15T10:28:18.439Z,101433.66
2022-11-15T10:31:28.662Z,101414.81
2022-11-15T10:34:36.970Z,101421.19
2022-11-15T10:37:39.349Z,101419.06
2022-11-15T10:40:44.802Z,101419.13
2022-11-15T10:44:16.304Z,101399.31
2022-11-15T10:47:37.872Z,101401.38
2022-11-15T10:50:52.151Z,101403.19
2022-11-15T10:54:00.812Z,101402.44
2022-11-15T10:57:08.631Z,101404.97
2022-11-15T11:00:11.335Z,101405.28
2022-11-15T11:03:41.305Z,101403.47
2022-11-15T11:07:00.856Z,101400.81
2022-11-15T11:10:44.541Z,101379.31
2022-11-15T11:13:42.584Z,101386.19
2022-11-15T11:17:31.847Z,101378.03
2022-11-15T11:20:35.974Z,101374.28
2022-11-15T11:23:54.563Z,101367.66
2022-11-15T11:27:27.385Z,101354.44
2022-11-15T11:30:51.439Z,101358.94
2022-11-15T11:33:59.861Z,101357.31
2022-11-15T11:37:22.184Z,101354.13
2022-11-15T11:40:33.996Z,101324.84
2022-11-15T11:43:41.977Z,101345.19
2022-11-15T11:46:44.322Z,101340.50
2022-11-15T11:49:53.506Z,101304.06
2022-11-15T11:53:04.180Z,101324.94
2022-11-15T11:56:22.360Z,101320.31
2022-11-15T11:59:32.825Z,101309.03
2022-11-15T12:02:44.613Z,101314.28
2022-11-15T12:05:58.885Z,101289.94
2022-11-15T12:09:24.498Z,101302.66
2022-11-15T12:12:27.076Z,101304.09
2022-11-15T12:15:34.295Z,101277.78
2022-11-15T12:18:36.866Z,101288.66
2022-11-15T12:22:00.222Z,101279.78
2022-11-15T12:25:25.361Z,101280.78
2022-11-15T12:29:06.506Z,101277.25
2022-11-15T12:32:24.602Z,101273.22
2022-11-15T12:35:40.092Z,101251.53
2022-11-15T12:38:54.914Z,101223.19
2022-11-15T12:41:57.053Z,101245.84
2022-11-15T12:45:00.292Z,101246.47
2022-11-15T12:48:17.538Z,101246.94
2022-11-15T12:51:44.063Z,101244.59
2022-11-15T12:54:58.025Z,101250.22
2022-11-15T12:58:39.627Z,101244.59
2022-11-15T13:01:41.649Z,101246.00
2022-11-15T13:04:43.723Z,101241.31
2022-11-15T13:07:45.852Z,101240.09
2022-11-15T13:10:47.955Z,101207.09
2022-11-15T13:13:50.007Z,101236.56
2022-11-15T13:17:00.322Z,101241.06
2022-11-15T13:20:08.903Z,101234.47
2022-11-15T13:23:16.743Z,101236.72
2022-11-15T13:26:24.266Z,101229.69
2022-11-15T13:29:30.335Z,101219.38
2022-11-15T13:32:32.439Z,101229.59
2022-11-15T13:35:38.284Z,101208.00
2022-11-15T13:38:41.669Z,101217.44
2022-11-15T13:41:50.450Z,101210.50
2022-11-15T13:45:04.783Z,101215.38
2022-11-15T13:48:09.453Z,101202.38
2022-11-15T13:51:41.426Z,101202.31
2022-11-15T13:54:57.176Z,101209.88
2022-11-15T13:58:07.281Z,101191.34
2022-11-15T14:01:18.339Z,101190.31
2022-11-15T14:04:24.298Z,101186.66
2022-11-15T14:07:29.816Z,101182.34
2022-11-15T14:10:37.725Z,101181.81
2022-11-15T14:13:40.015Z,101180.41
2022-11-15T14:16:47.977Z,101182.44
2022-11-15T14:19:50.955Z,101180.00
2022-11-15T14:23:05.691Z,101185.41
2022-11-15T14:26:34.932Z,101179.25
2022-11-15T14:29:37.471Z,101170.22
2022-11-15T14:32:49.002Z,101168.03
2022-11-15T14:35:58.392Z,101154.75
2022-11-15T14:39:01.476Z,101133.97
2022-11-15T14:42:03.531Z,101147.63
2022-11-15T14:45:14.808Z,101152.19
2022-11-15T14:48:16.877Z,101152.16
2022-11-15T14:51:19.458Z,101146.50
2022-11-15T14:54:21.521Z,101138.16
2022-11-15T14:57:23.687Z,101137.31
2022-11-15T15:00:27.847Z,101129.31
2022-11-15T15:03:32.971Z,101127.50
2022-11-15T15:06:35.037Z,101126.13
2022-11-15T15:09:37.323Z,101142.22
2022-11-15T15:12:39.918Z,101134.47
2022-11-15T15:15:42.318Z,101138.75
2022-11-15T15:18:44.729Z,101133.16
2022-11-15T15:21:46.900Z,101141.13
2022-11-15T15:24:49.303Z,101115.84
2022-11-15T15:27:51.600Z,101102.59
2022-11-15T15:30:53.916Z,101129.41
2022-11-15T15:33:56.062Z,101132.56
2022-11-15T15:37:25.167Z,101125.75
2022-11-15T15:40:30.149Z,101121.81
2022-11-15T15:43:32.245Z,101101.34
2022-11-15T15:46:36.589Z,101101.94
2022-11-15T15:49:39.976Z,101106.47
2022-11-15T15:52:42.098Z,101116.94
2022-11-15T15:55:45.534Z,101094.75
2022-11-15T15:58:48.309Z,101096.56
2022-11-15T16:01:50.363Z,101105.44
2022-11-15T16:04:53.828Z,101103.50
2022-11-15T16:07:59.049Z,101097.03
2022-11-15T16:11:01.244Z,101090.44
2022-11-15T16:14:06.223Z,101107.81
2022-11-15T16:17:16.975Z,101099.91
2022-11-15T16:20:36.974Z,101113.19
2022-11-15T16:23:39.142Z,101103.03
2022-11-15T16:26:41.306Z,101093.72
2022-11-15T16:29:45.608Z,101092.91
2022-11-15T16:32:50.850Z,101085.97
2022-11-15T16:35:54.926Z,101093.28
2022-11-15T16:38:58.175Z,101083.66
2022-11-15T16:42:06.221Z,101076.91
2022-11-15T16:45:12.947Z,101083.44
2022-11-15T16:48:28.969Z,101075.13
2022-11-15T16:51:31.025Z,101084.75
2022-11-15T16:54:35.738Z,101085.00
2022-11-15T16:57:38.294Z,101070.78
2022-11-15T17:00:41.401Z,101063.06
2022-11-15T17:03:43.505Z,101064.50
2022-11-15T17:06:47.730Z,101055.91
2022-11-15T17:09:50.192Z,101056.03
2022-11-15T17:12:53.346Z,101035.44
2022-11-15T17:16:13.916Z,101031.97
2022-11-15T17:19:21.943Z,101038.63
2022-11-15T17:22:24.670Z,101042.94
2022-11-15T17:25:26.775Z,101033.03
2022-11-15T17:28:30.044Z,101016.72
2022-11-15T17:31:34.675Z,101032.22
2022-11-15T17:34:38.091Z,101026.31
2022-11-15T17:37:41.583Z,101030.28
2022-11-15T17:40:44.097Z,101016.09
2022-11-15T17:43:48.823Z,101013.75
2022-11-15T17:46:51.703Z,101018.25
2022-11-15T17:49:54.138Z,101008.34
2022-11-15T17:52:57.571Z,101012.56
2022-11-15T17:56:04.817Z,101006.00
2022-11-15T17:59:15.886Z,100993.88
2022-11-15T18:02:21.158Z,100996.22
2022-11-15T18:05:24.879Z,100980.03
2022-11-15T18:08:29.497Z,101000.13
2022-11-15T18:11:39.802Z,101012.84
2022-11-15T18:14:43.048Z,101009.84
2022-11-15T18:17:45.782Z,100997.22
2022-11-15T18:20:49.839Z,100977.28
2022-11-15T18:23:57.040Z,100994.81
2022-11-15T18:27:00.754Z,100980.75
2022-11-15T18:30:03.287Z,100977.56
2022-11-15T18:33:05.389Z,100967.03
2022-11-15T18:36:10.211Z,100973.44
2022-11-15T18:39:16.952Z,100959.53
2022-11-15T18:42:19.812Z,100966.34
2022-11-15T18:45:24.323Z,100939.25
2022-11-15T18:48:40.665Z,100938.31
2022-11-15T18:51:43.228Z,100957.06
2022-11-15T18:54:45.240Z,100953.06
2022-11-15T18:57:47.471Z,100935.69
2022-11-15T19:00:49.790Z,100950.06
2022-11-15T19:03:55.277Z,100959.41
2022-11-15T19:06:57.326Z,100951.75
2022-11-15T19:09:59.353Z,100938.34
2022-11-15T19:13:02.670Z,100960.78
2022-11-15T19:16:05.801Z,100947.34
2022-11-15T19:19:12.897Z,100952.09
2022-11-15T19:22:14.950Z,100947.59
2022-11-15T19:25:19.036Z,100934.28
2022-11-15T19:28:21.188Z,100935.78
2022-11-15T19:31:25.089Z,100922.63
2022-11-15T19:34:27.335Z,100900.22
2022-11-15T19:37:29.386Z,100922.38
2022-11-15T19:40:33.530Z,100931.94
2022-11-15T19:43:35.951Z,100937.06
2022-11-15T19:46:39.099Z,100916.16
2022-11-15T19:49:41.124Z,100923.91
2022-11-15T19:52:43.638Z,100934.72
2022-11-15T19:55:56.472Z,100919.88
2022-11-15T19:58:58.768Z,100899.34
2022-11-15T20:02:02.276Z,100908.97
2022-11-15T20:05:05.049Z,100916.81
2022-11-15T20:08:07.351Z,100915.06
2022-11-15T20:11:09.866Z,100905.25
2022-11-15T20:14:13.291Z,100904.63
2022-11-15T20:17:15.435Z,100878.84
2022-11-15T20:20:17.791Z,100887.56
2022-11-15T20:23:19.865Z,100895.00
2022-11-15T20:26:22.520Z,100880.72
2022-11-15T20:29:24.690Z,100884.84
2022-11-15T20:32:27.878Z,100884.75
2022-11-15T20:35:30.863Z,100872.31
2022-11-15T20:38:33.725Z,100865.63
2022-11-15T20:41:35.916Z,100876.41
2022-11-15T20:44:37.996Z,100870.44
2022-11-15T20:47:40.175Z,100867.28
2022-11-15T20:50:43.876Z,100840.84
2022-11-15T20:53:47.182Z,100850.69
2022-11-15T20:56:49.903Z,100844.97
2022-11-15T20:59:51.935Z,100828.00
2022-11-15T21:02:54.265Z,100835.50
2022-11-15T21:05:56.498Z,100824.00
2022-11-15T21:09:17.599Z,100799.81
2022-11-15T21:12:19.781Z,100799.72
2022-11-15T21:15:22.130Z,100824.09
2022-11-15T21:18:24.780Z,100809.97
2022-11-15T21:21:27.001Z,100816.69
2022-11-15T21:24:30.074Z,100784.09
2022-11-15T21:27:32.175Z,100813.88
2022-11-15T21:30:39.640Z,100793.53
2022-11-15T21:33:44.238Z,100824.88
2022-11-15T21:36:47.241Z,100814.59
2022-11-15T21:39:49.235Z,100796.66
2022-11-15T21:42:51.434Z,100800.91
2022-11-15T21:45:57.795Z,100784.75
2022-11-15T21:49:00.393Z,100794.53
2022-11-15T21:52:02.539Z,100792.84
2022-11-15T21:55:04.748Z,100797.72
2022-11-15T21:58:06.793Z,100792.84
2022-11-15T22:01:30.278Z,100786.69
2022-11-15T22:04:32.312Z,100779.53
2022-11-15T22:07:34.358Z,100780.44
2022-11-15T22:10:36.435Z,100753.94
2022-11-15T22:13:38.642Z,100765.06
2022-11-15T22:16:41.187Z,100760.72
2022-11-15T22:19:52.254Z,100725.50
2022-11-15T22:22:55.121Z,100746.75
2022-11-15T22:25:57.860Z,100744.00
2022-11-15T22:29:00.138Z,100734.84
2022-11-15T22:32:03.244Z,100727.72
2022-11-15T22:35:09.074Z,100743.34
2022-11-15T22:38:11.394Z,100743.41
2022-11-15T22:41:13.569Z,100743.44
2022-11-15T22:44:15.695Z,100726.44
2022-11-15T22:47:18.579Z,100751.72
2022-11-15T22:50:21.092Z,100701.75
2022-11-15T22:53:23.848Z,100739.09
2022-11-15T22:56:25.994Z,100731.34
2022-11-15T22:59:28.146Z,100738.94
2022-11-15T23:02:30.555Z,100735.22
2022-11-15T23:05:32.797Z,100725.47
2022-11-15T23:08:35.009Z,100729.53
2022-11-15T23:11:56.429Z,100710.50
2022-11-15T23:14:58.756Z,100706.28
2022-11-15T23:18:00.865Z,100684.09
2022-11-15T23:21:39.086Z,100674.53
2022-11-15T23:24:41.242Z,100686.66
2022-11-15T23:27:44.021Z,100708.22
2022-11-15T23:31:04.918Z,100704.84
2022-11-15T23:34:09.619Z,100699.16
2022-11-15T23:37:14.140Z,100689.94
2022-11-15T23:40:16.422Z,100704.41
2022-11-15T23:43:18.854Z,100693.13
2022-11-15T23:46:21.018Z,100684.03
2022-11-15T23:49:23.379Z,100690.38
2022-11-15T23:52:26.447Z,100692.22
2022-11-15T23:55:28.501Z,100685.38
2022-11-15T23:58:30.871Z,100672.03
